Time;durP1;ratioP1;P1;durP2;ratioP2;P2;SDS_P1;SDS_P2;PMS_P1;PMS_P2;Temp;Humidity;BMP_temperature;BMP_pressure;BME280_temperature;BME280_humidity;BME280_pressure;Samples;Min_cycle;Max_cycle;Signal;HPM_P1;HPM_P2
2021/05/09 00:00:15;;;;;;;2.85;2.65;;;;;;;3.78;91.72;99553.21;1756761;80;20929;-59
2021/05/09 00:02:42;;;;;;;3.08;2.85;;;;;;;3.80;91.56;99559.69;1756875;81;21230;-59
2021/05/09 00:05:11;;;;;;;3.40;3.10;;;;;;;3.81;91.46;99566.13;1764142;81;22193;-59
2021/05/09 00:07:39;;;;;;;3.12;2.83;;;;;;;3.80;91.27;99571.05;1753363;81;21159;-59
2021/05/09 00:10:10;;;;;;;2.50;2.30;;;;;;;3.81;91.14;99570.58;1752233;81;21211;-58
2021/05/09 00:12:38;;;;;;;3.02;2.80;;;;;;;3.80;90.99;99571.05;1752329;81;20959;-59
2021/05/09 00:15:09;;;;;;;3.25;2.95;;;;;;;3.79;90.91;99568.53;1762164;80;21106;-58
2021/05/09 00:17:39;;;;;;;3.35;2.75;;;;;;;3.78;90.85;99570.83;1752259;81;22060;-58
2021/05/09 00:20:09;;;;;;;3.02;2.80;;;;;;;3.75;90.72;99570.09;1755815;80;21147;-59
2021/05/09 00:22:36;;;;;;;2.83;2.62;;;;;;;3.74;90.59;99576.80;1752462;81;21602;-60
2021/05/09 00:25:05;;;;;;;3.08;2.77;;;;;;;3.71;90.59;99567.36;1757524;81;20973;-59
2021/05/09 00:27:33;;;;;;;5.42;3.12;;;;;;;3.68;90.55;99568.92;1753889;80;21127;-59
2021/05/09 00:30:00;;;;;;;4.03;3.62;;;;;;;3.67;90.53;99565.95;1754677;81;21194;-59
2021/05/09 00:32:28;;;;;;;3.90;3.58;;;;;;;3.67;90.50;99569.91;1752232;81;21191;-59
2021/05/09 00:34:56;;;;;;;6.80;4.30;;;;;;;3.65;90.34;99571.80;1756838;81;20938;-60
2021/05/09 00:37:24;;;;;;;4.15;3.72;;;;;;;3.64;90.29;99571.94;1752292;81;20930;-59
2021/05/09 00:39:51;;;;;;;5.00;3.67;;;;;;;3.63;90.29;99572.41;1752853;81;21124;-58
2021/05/09 00:42:19;;;;;;;4.00;3.33;;;;;;;3.63;90.31;99580.78;1749889;81;21455;-59
2021/05/09 00:44:48;;;;;;;4.08;3.00;;;;;;;3.64;90.36;99582.46;1749971;81;21136;-58
2021/05/09 00:47:16;;;;;;;3.12;2.72;;;;;;;3.63;90.23;99580.30;1746343;81;21061;-59
2021/05/09 00:49:43;;;;;;;3.75;2.67;;;;;;;3.60;90.10;99582.33;1746501;81;21160;-59
2021/05/09 00:52:12;;;;;;;2.60;2.40;;;;;;;3.57;90.07;99583.92;1746914;81;21012;-59
2021/05/09 00:54:51;;;;;;;3.02;2.35;;;;;;;3.54;90.12;99590.27;1751561;81;22143;-61
2021/05/09 00:57:20;;;;;;;3.95;2.72;;;;;;;3.51;90.22;99590.51;1746901;81;21168;-61
2021/05/09 00:59:52;;;;;;;3.33;2.80;;;;;;;3.48;90.50;99593.86;1746868;81;21156;-58
2021/05/09 01:02:20;;;;;;;3.27;2.77;;;;;;;3.48;90.56;99593.86;1746925;81;21128;-59
2021/05/09 01:04:48;;;;;;;2.58;2.37;;;;;;;3.44;90.54;99595.88;1751036;81;21174;-60
2021/05/09 01:07:17;;;;;;;3.05;2.60;;;;;;;3.42;90.57;99593.02;1751258;81;21534;-60
2021/05/09 01:09:44;;;;;;;3.00;2.12;;;;;;;3.41;90.60;99595.31;1746890;81;20993;-59
2021/05/09 01:12:12;;;;;;;3.37;3.08;;;;;;;3.40;90.63;99596.26;1746900;81;21139;-59
2021/05/09 01:14:41;;;;;;;3.25;2.58;;;;;;;3.35;90.70;99597.95;1750799;81;21106;-58
2021/05/09 01:17:10;;;;;;;3.45;2.70;;;;;;;3.32;90.83;99596.87;1747591;81;21156;-58
2021/05/09 01:19:39;;;;;;;3.10;2.80;;;;;;;3.30;90.93;99599.27;1715174;82;21208;-59
2021/05/09 01:22:09;;;;;;;3.10;2.80;;;;;;;3.31;90.99;99603.08;1747020;81;21560;-59
2021/05/09 01:24:36;;;;;;;2.85;2.60;;;;;;;3.30;91.08;99605.37;1755115;81;21183;-59
2021/05/09 01:27:04;;;;;;;3.35;2.70;;;;;;;3.33;91.24;99606.91;1756063;81;21082;-59
2021/05/09 01:29:33;;;;;;;2.75;2.55;;;;;;;3.31;91.21;99607.52;1718131;82;21156;-58
2021/05/09 01:32:05;;;;;;;3.75;3.22;;;;;;;3.31;91.23;99610.16;1717161;83;20946;-58
2021/05/09 01:34:35;;;;;;;3.25;2.95;;;;;;;3.30;91.33;99613.25;1719569;82;21064;-60
2021/05/09 01:37:04;;;;;;;3.83;3.33;;;;;;;3.29;91.31;99608.09;1727388;82;20942;-60
2021/05/09 01:39:31;;;;;;;3.20;2.87;;;;;;;3.25;91.30;99603.58;1717127;83;21175;-59
2021/05/09 01:42:02;;;;;;;4.60;2.83;;;;;;;3.23;91.33;99605.50;1700202;83;21041;-60
2021/05/09 01:44:29;;;;;;;3.50;3.20;;;;;;;3.20;91.34;99597.85;1677182;84;21407;-59
2021/05/09 01:46:57;;;;;;;3.40;3.10;;;;;;;3.19;91.44;99597.48;1690384;84;21502;-59
2021/05/09 01:49:27;;;;;;;3.22;2.92;;;;;;;3.18;91.41;99602.38;1676738;84;20969;-59
2021/05/09 01:51:55;;;;;;;3.77;3.27;;;;;;;3.18;91.46;99606.31;1748756;81;20988;-58
2021/05/09 01:54:23;;;;;;;3.00;2.77;;;;;;;3.19;91.34;99599.27;1746150;81;21036;-59
2021/05/09 01:56:50;;;;;;;3.58;2.98;;;;;;;3.18;91.31;99599.74;1742312;82;21418;-60
2021/05/09 01:59:18;;;;;;;3.65;3.08;;;;;;;3.17;91.23;99604.66;1704259;84;21064;-59
2021/05/09 02:01:48;;;;;;;3.75;3.22;;;;;;;3.16;91.19;99606.92;1704402;84;20946;-60
2021/05/09 02:04:27;;;;;;;4.72;2.92;;;;;;;3.16;91.32;99606.92;1702723;83;21001;-58
2021/05/09 02:06:58;;;;;;;3.05;2.75;;;;;;;3.16;91.31;99613.49;1743104;81;21480;-60
2021/05/09 02:09:26;;;;;;;3.87;2.90;;;;;;;3.15;91.33;99621.52;1704396;84;21415;-59
2021/05/09 02:11:55;;;;;;;3.17;2.83;;;;;;;3.13;91.44;99621.61;1704352;84;21139;-59
2021/05/09 02:14:24;;;;;;;3.25;2.92;;;;;;;3.11;91.57;99617.80;1704495;83;20993;-59
2021/05/09 02:16:53;;;;;;;4.42;2.90;;;;;;;3.14;91.67;99620.67;1706146;83;21186;-59
2021/05/09 02:19:21;;;;;;;4.03;2.80;;;;;;;3.13;91.42;99624.24;1704335;84;21184;-59
2021/05/09 02:21:50;;;;;;;3.05;2.75;;;;;;;3.10;91.47;99628.45;1704386;84;21377;-59
2021/05/09 02:24:17;;;;;;;3.20;2.90;;;;;;;3.11;91.65;99627.48;1704293;83;21140;-60
2021/05/09 02:26:46;;;;;;;3.17;2.87;;;;;;;3.10;91.68;99622.69;1717120;83;21127;-59
2021/05/09 02:29:14;;;;;;;4.92;3.05;;;;;;;3.12;91.75;99627.84;1747883;81;20929;-59
2021/05/09 02:31:42;;;;;;;4.72;3.50;;;;;;;3.14;91.94;99621.98;1745968;82;21155;-59
2021/05/09 02:34:11;;;;;;;4.90;3.00;;;;;;;3.16;91.86;99628.42;1741965;82;21487;-60
2021/05/09 02:36:39;;;;;;;3.70;3.10;;;;;;;3.19;92.01;99628.19;1704867;83;21637;-59
2021/05/09 02:39:07;;;;;;;3.98;2.92;;;;;;;3.22;92.08;99631.90;1704323;84;21593;-59
2021/05/09 02:41:37;;;;;;;4.60;3.05;;;;;;;3.26;92.17;99637.30;1708576;82;21206;-58
2021/05/09 02:44:07;;;;;;;6.40;3.20;;;;;;;3.30;92.25;99640.02;1746972;81;20926;-58
2021/05/09 02:46:35;;;;;;;3.37;2.90;;;;;;;3.32;92.24;99646.83;1759327;80;21379;-59
2021/05/09 02:49:03;;;;;;;3.50;3.20;;;;;;;3.34;92.24;99644.91;1746793;81;20962;-59
2021/05/09 02:51:31;;;;;;;3.92;3.42;;;;;;;3.36;92.21;99648.75;1746801;81;20993;-59
2021/05/09 02:54:00;;;;;;;3.65;3.25;;;;;;;3.38;92.30;99647.67;1746894;81;21005;-59
2021/05/09 02:56:30;;;;;;;3.08;2.77;;;;;;;3.43;92.25;99646.83;1755149;81;20993;-59
2021/05/09 02:58:58;;;;;;;3.62;2.92;;;;;;;3.47;92.13;99655.30;1746986;81;21397;-59
2021/05/09 03:01:25;;;;;;;5.15;4.12;;;;;;;3.51;92.15;99655.43;1746841;81;20958;-59
2021/05/09 03:03:53;;;;;;;5.15;3.80;;;;;;;3.56;92.09;99657.21;1746839;81;21009;-59
2021/05/09 03:06:24;;;;;;;4.22;3.83;;;;;;;3.63;92.11;99652.66;1751492;81;21236;-59
2021/05/09 03:08:52;;;;;;;4.33;3.00;;;;;;;3.79;92.03;99658.00;1748406;81;21058;-59
2021/05/09 03:11:21;;;;;;;3.62;3.33;;;;;;;3.94;91.74;99659.39;1751102;81;21372;-59
2021/05/09 03:13:48;;;;;;;7.42;3.95;;;;;;;4.14;91.32;99659.47;1746743;81;21634;-59
2021/05/09 03:16:16;;;;;;;4.53;4.12;;;;;;;4.34;91.05;99663.09;1749053;81;21629;-59
2021/05/09 03:18:45;;;;;;;4.40;4.00;;;;;;;4.53;90.37;99663.25;1747977;81;20985;-58
2021/05/09 03:21:14;;;;;;;4.05;3.70;;;;;;;4.80;89.74;99669.30;1746849;81;21637;-59
2021/05/09 03:23:42;;;;;;;3.95;3.55;;;;;;;5.03;88.93;99669.53;1746885;81;21351;-60
2021/05/09 03:26:09;;;;;;;3.58;2.90;;;;;;;5.24;88.31;99668.17;1747542;81;21148;-59
2021/05/09 03:28:39;;;;;;;4.20;3.52;;;;;;;5.48;87.34;99669.99;1751037;81;20988;-59
2021/05/09 03:31:06;;;;;;;3.10;2.80;;;;;;;5.74;86.53;99671.19;1753578;81;21001;-60
2021/05/09 03:33:33;;;;;;;3.62;3.33;;;;;;;5.98;85.02;99676.98;1746803;81;21072;-60
2021/05/09 03:36:01;;;;;;;2.75;2.47;;;;;;;6.22;83.80;99672.63;1748015;81;21192;-60
2021/05/09 03:38:28;;;;;;;3.92;2.80;;;;;;;6.48;82.57;99675.55;1763988;81;21202;-60
2021/05/09 03:40:56;;;;;;;3.35;2.77;;;;;;;6.69;81.28;99677.08;1752985;80;21065;-59
2021/05/09 03:43:24;;;;;;;3.58;2.58;;;;;;;6.93;80.64;99688.53;1743050;82;21132;-60
2021/05/09 03:45:51;;;;;;;3.20;2.70;;;;;;;7.18;79.79;99689.23;1741719;82;21163;-60
2021/05/09 03:48:19;;;;;;;3.50;2.67;;;;;;;7.45;78.67;99692.41;1783145;79;21361;-60
2021/05/09 03:50:46;;;;;;;3.08;2.77;;;;;;;7.75;77.09;99700.56;1740038;81;21202;-60
2021/05/09 03:53:15;;;;;;;4.45;3.42;;;;;;;7.95;75.20;99700.82;1767635;79;20932;-60
2021/05/09 03:55:43;;;;;;;3.00;2.77;;;;;;;8.15;74.47;99696.22;1742421;82;21140;-59
2021/05/09 03:58:10;;;;;;;2.95;2.67;;;;;;;8.39;73.77;99700.00;1752512;81;21187;-59
2021/05/09 04:00:38;;;;;;;3.05;2.75;;;;;;;8.62;72.52;99700.38;1763512;80;21350;-60
2021/05/09 04:03:25;;;;;;;4.03;3.30;;;;;;;8.90;72.56;99699.27;1747008;81;21104;-59
2021/05/09 04:05:53;;;;;;;4.12;2.85;;;;;;;9.26;71.92;99706.16;1711719;82;21207;-60
2021/05/09 04:08:25;;;;;;;4.30;3.35;;;;;;;9.61;69.64;99699.89;1783905;79;21127;-60
2021/05/09 04:10:55;;;;;;;3.40;3.10;;;;;;;9.84;68.33;99709.45;1741635;82;21017;-60
2021/05/09 04:13:23;;;;;;;3.47;3.17;;;;;;;10.12;67.99;99705.59;1763878;80;21158;-60
2021/05/09 04:15:50;;;;;;;3.52;2.90;;;;;;;10.48;66.58;99712.84;1767917;79;21075;-60
2021/05/09 04:18:18;;;;;;;8.03;3.05;;;;;;;10.76;65.37;99706.20;1766835;79;20929;-60
2021/05/09 04:20:45;;;;;;;3.08;2.75;;;;;;;11.03;64.17;99709.84;1743331;80;21059;-60
2021/05/09 04:23:15;;;;;;;4.25;2.75;;;;;;;11.30;63.59;99711.81;1770524;79;21143;-60
2021/05/09 04:25:50;;;;;;;3.30;3.00;;;;;;;11.66;62.70;99709.05;1783673;79;21275;-60
2021/05/09 04:28:19;;;;;;;4.70;3.00;;;;;;;12.07;61.40;99709.25;1783281;79;21099;-60
2021/05/09 04:30:47;;;;;;;3.17;2.90;;;;;;;12.44;59.54;99710.38;1771783;80;21067;-60
2021/05/09 04:33:15;;;;;;;3.87;3.47;;;;;;;12.68;58.37;99711.55;1782473;79;21107;-60
2021/05/09 04:35:56;;;;;;;2.92;2.72;;;;;;;12.88;56.97;99722.06;1656924;86;21143;-60
2021/05/09 04:38:24;;;;;;;6.25;3.60;;;;;;;13.15;56.74;99724.22;1639602;86;21367;-60
2021/05/09 04:40:52;;;;;;;3.33;3.02;;;;;;;13.48;56.00;99728.23;1647924;86;21092;-60
2021/05/09 04:43:21;;;;;;;3.10;2.80;;;;;;;13.85;55.05;99730.50;1671473;85;21139;-60
2021/05/09 04:45:55;;;;;;;4.85;2.95;;;;;;;14.15;53.94;99730.81;1638561;86;21189;-60
2021/05/09 04:48:23;;;;;;;3.98;3.58;;;;;;;14.38;52.63;99732.03;1671486;85;21076;-60
2021/05/09 04:50:51;;;;;;;8.08;3.77;;;;;;;14.53;51.93;99736.83;1662641;86;21373;-60
2021/05/09 04:53:30;;;;;;;6.92;3.25;;;;;;;14.67;51.29;99734.13;1673752;84;21176;-60
2021/05/09 04:56:01;;;;;;;2.67;2.47;;;;;;;14.79;50.54;99739.28;1671451;85;21182;-59
2021/05/09 04:58:29;;;;;;;2.37;2.17;;;;;;;14.90;50.23;99735.27;1676349;84;21214;-60
2021/05/09 05:01:01;;;;;;;2.60;2.40;;;;;;;15.00;49.46;99739.79;1703597;84;21654;-60
2021/05/09 05:03:29;;;;;;;2.67;2.42;;;;;;;15.09;49.14;99743.17;1674584;84;21382;-60
2021/05/09 05:05:57;;;;;;;3.40;2.92;;;;;;;15.16;48.82;99751.59;1638562;87;22284;-60
2021/05/09 05:08:28;;;;;;;3.10;2.80;;;;;;;15.28;48.74;99737.97;1638615;86;20977;-60
2021/05/09 05:10:55;;;;;;;3.90;3.55;;;;;;;15.47;48.17;99751.23;1641144;86;21151;-61
2021/05/09 05:13:25;;;;;;;2.70;2.47;;;;;;;15.63;47.92;99749.61;1650697;86;21624;-60
2021/05/09 05:15:55;;;;;;;2.70;2.47;;;;;;;15.83;47.64;99750.55;1648702;86;21503;-60
2021/05/09 05:18:24;;;;;;;3.75;2.80;;;;;;;15.97;46.93;99744.25;1638349;87;21034;-61
2021/05/09 05:20:53;;;;;;;4.17;3.00;;;;;;;16.08;46.05;99752.77;1638482;87;20970;-62
2021/05/09 05:23:21;;;;;;;3.05;2.65;;;;;;;16.16;45.80;99757.45;1638085;86;21654;-61
2021/05/09 05:25:48;;;;;;;2.75;2.40;;;;;;;16.24;45.65;99754.58;1668890;85;21187;-61
2021/05/09 05:28:16;;;;;;;3.20;2.52;;;;;;;16.41;45.21;99766.64;1637641;86;21454;-61
2021/05/09 05:30:45;;;;;;;3.52;2.62;;;;;;;16.53;45.10;99772.28;1681788;84;21234;-60
2021/05/09 05:33:34;;;;;;;2.98;2.72;;;;;;;16.66;44.24;99770.47;1678109;84;21214;-61
2021/05/09 05:36:04;;;;;;;3.22;2.62;;;;;;;16.77;44.21;99770.40;1664917;84;21168;-59
2021/05/09 05:38:32;;;;;;;3.22;2.47;;;;;;;16.84;43.98;99776.60;1670910;84;21163;-63
2021/05/09 05:40:59;;;;;;;4.00;2.60;;;;;;;16.96;43.87;99780.37;1638354;86;21224;-59
2021/05/09 05:43:31;;;;;;;3.20;2.42;;;;;;;17.15;43.58;99779.55;1645103;85;21250;-60
2021/05/09 05:46:00;;;;;;;2.67;2.47;;;;;;;17.36;43.18;99779.91;1641505;85;21156;-60
2021/05/09 05:48:29;;;;;;;3.27;2.67;;;;;;;17.63;42.83;99779.39;1601444;87;21215;-60
2021/05/09 05:50:58;;;;;;;3.52;3.20;;;;;;;18.23;41.50;99780.92;1674918;84;21180;-61
2021/05/09 05:53:27;;;;;;;3.62;2.92;;;;;;;18.23;41.50;99780.92;1678656;84;21225;-61
2021/05/09 05:55:55;;;;;;;4.37;3.05;;;;;;;18.60;41.18;99780.70;1675739;84;21207;-59
2021/05/09 05:58:22;;;;;;;4.28;2.70;;;;;;;18.93;40.17;99777.30;1637415;86;21164;-60
2021/05/09 06:00:50;;;;;;;9.18;3.17;;;;;;;19.18;39.29;99780.06;1642873;85;21680;-61
2021/05/09 06:03:18;;;;;;;4.30;3.08;;;;;;;19.31;39.19;99779.96;1632739;86;21663;-58
2021/05/09 06:05:46;;;;;;;3.17;2.50;;;;;;;19.37;38.81;99774.53;1674926;84;21230;-58
2021/05/09 06:08:16;;;;;;;4.53;2.87;;;;;;;19.46;38.40;99782.67;1632524;86;21618;-58
2021/05/09 06:10:44;;;;;;;4.97;2.85;;;;;;;19.64;37.80;99781.37;1643531;86;21203;-60
2021/05/09 06:13:12;;;;;;;3.40;3.00;;;;;;;19.80;37.24;99779.14;1634923;86;21514;-63
2021/05/09 06:15:41;;;;;;;3.33;2.52;;;;;;;20.01;37.17;99788.17;1630364;86;21209;-61
2021/05/09 06:18:09;;;;;;;4.10;2.92;;;;;;;20.21;36.56;99784.73;1663610;84;21387;-58
2021/05/09 06:20:37;;;;;;;4.00;2.80;;;;;;;20.37;36.40;99785.52;1671379;84;21084;-60
2021/05/09 06:23:05;;;;;;;3.77;3.47;;;;;;;20.45;35.62;99788.43;1664319;86;21109;-59
2021/05/09 06:25:34;;;;;;;3.33;2.12;;;;;;;20.51;35.51;99788.89;1631481;87;21091;-62
2021/05/09 06:28:02;;;;;;;3.98;2.85;;;;;;;20.53;35.17;99787.61;1619319;87;21166;-62
2021/05/09 06:30:30;;;;;;;3.12;2.58;;;;;;;20.52;34.39;99780.54;1635379;87;21396;-60
2021/05/09 06:32:58;;;;;;;3.35;2.55;;;;;;;20.54;35.16;99774.41;1631270;86;21182;-59
2021/05/09 06:35:25;;;;;;;3.70;2.60;;;;;;;20.79;34.53;99780.50;1631414;87;21013;-60
2021/05/09 06:37:54;;;;;;;2.30;2.02;;;;;;;21.03;33.68;99781.42;1633650;86;21057;-62
2021/05/09 06:40:23;;;;;;;2.85;2.33;;;;;;;21.10;33.09;99778.63;1636070;86;21172;-59
2021/05/09 06:42:59;;;;;;;4.12;2.62;;;;;;;21.05;33.12;99785.23;1638302;86;21376;-57
2021/05/09 06:45:28;;;;;;;4.37;2.12;;;;;;;21.13;33.01;99792.53;1635002;86;21139;-56
2021/05/09 06:48:02;;;;;;;2.77;2.52;;;;;;;21.03;32.24;99794.11;1636152;86;21610;-60
2021/05/09 06:50:33;;;;;;;2.85;2.10;;;;;;;20.84;32.84;99798.22;1634060;86;21641;-62
2021/05/09 06:53:02;;;;;;;2.30;1.90;;;;;;;20.93;32.19;99793.32;1636662;86;21277;-60
2021/05/09 06:55:30;;;;;;;3.17;2.25;;;;;;;20.88;32.35;99792.63;1634261;86;21376;-62
2021/05/09 06:57:57;;;;;;;4.12;2.60;;;;;;;20.80;32.42;99792.15;1629711;86;21160;-63
2021/05/09 07:00:25;;;;;;;3.15;1.92;;;;;;;20.47;32.89;99785.80;1630671;86;21148;-54
2021/05/09 07:02:53;;;;;;;3.50;2.25;;;;;;;20.24;34.70;99788.37;1630908;86;21143;-53
2021/05/09 07:05:21;;;;;;;2.90;2.42;;;;;;;20.37;36.66;99793.62;1657799;86;21165;-56
2021/05/09 07:07:53;;;;;;;3.33;1.80;;;;;;;20.58;33.48;99789.62;1645969;86;21229;-54
2021/05/09 07:10:26;;;;;;;1.80;1.50;;;;;;;20.71;33.42;99786.75;1635265;86;21601;-53
2021/05/09 07:12:55;;;;;;;2.45;1.92;;;;;;;20.83;34.34;99786.29;1634307;86;21770;-54
2021/05/09 07:15:28;;;;;;;2.33;2.10;;;;;;;21.01;33.47;99786.76;1639612;86;21633;-51
2021/05/09 07:18:09;;;;;;;2.40;1.80;;;;;;;21.13;33.26;99782.23;1633738;86;21195;-55
2021/05/09 07:20:39;;;;;;;2.60;1.55;;;;;;;21.25;33.10;99784.42;1635453;86;21210;-58
2021/05/09 07:23:07;;;;;;;2.75;1.30;;;;;;;21.37;30.33;99781.23;1630903;86;21159;-59
2021/05/09 07:25:34;;;;;;;4.33;3.83;;;;;;;21.42;29.73;99784.06;1636466;86;21200;-58
2021/05/09 07:28:11;;;;;;;2.58;2.17;;;;;;;21.52;29.89;99785.66;1639874;86;21183;-59
2021/05/09 07:30:41;;;;;;;2.05;1.85;;;;;;;21.73;29.33;99781.03;1659780;85;21242;-60
2021/05/09 07:33:16;;;;;;;1.42;1.32;;;;;;;21.75;28.82;99784.33;1631800;86;21243;-61
2021/05/09 07:35:46;;;;;;;1.95;1.40;;;;;;;21.78;28.45;99780.32;1649501;85;20958;-59
2021/05/09 07:38:14;;;;;;;3.90;3.27;;;;;;;21.70;27.91;99781.50;1657613;86;21563;-61
2021/05/09 07:40:42;;;;;;;2.35;1.32;;;;;;;21.66;28.12;99786.27;1659070;86;21260;-60
2021/05/09 07:43:15;;;;;;;2.12;1.60;;;;;;;21.70;27.37;99777.96;1685414;84;21599;-61
2021/05/09 07:45:44;;;;;;;2.58;1.47;;;;;;;21.71;27.29;99780.45;1680021;84;21393;-63
2021/05/09 07:48:11;;;;;;;1.47;1.30;;;;;;;21.57;27.71;99777.66;1679195;84;21238;-61
2021/05/09 07:50:39;;;;;;;1.90;1.60;;;;;;;21.32;27.77;99778.41;1650170;86;21684;-58
2021/05/09 07:53:07;;;;;;;2.45;1.30;;;;;;;21.09;27.45;99778.35;1645601;86;21237;-60
2021/05/09 07:55:35;;;;;;;2.80;1.55;;;;;;;20.98;27.58;99777.23;1640338;86;21120;-60
2021/05/09 07:58:18;;;;;;;2.45;1.27;;;;;;;21.01;27.85;99782.19;1639942;86;21391;-59
2021/05/09 08:00:46;;;;;;;3.65;2.15;;;;;;;21.11;26.85;99781.13;1638361;85;21605;-61
2021/05/09 08:03:14;;;;;;;3.20;2.77;;;;;;;21.26;26.60;99776.62;1640769;86;21211;-59
2021/05/09 08:05:42;;;;;;;1.72;1.35;;;;;;;21.37;25.91;99774.47;1580438;87;21065;-63
2021/05/09 08:08:10;;;;;;;1.90;1.25;;;;;;;21.33;25.94;99774.63;1633464;86;21147;-59
2021/05/09 08:10:41;;;;;;;2.12;1.42;;;;;;;21.39;26.74;99779.95;1613631;85;21386;-59
2021/05/09 08:13:11;;;;;;;1.17;0.98;;;;;;;21.79;26.36;99778.75;1633549;86;21251;-59
2021/05/09 08:15:40;;;;;;;1.45;1.12;;;;;;;22.04;25.13;99779.34;1609926;86;21168;-58
2021/05/09 08:18:07;;;;;;;1.32;1.00;;;;;;;22.04;25.42;99778.52;1605217;86;21214;-58
2021/05/09 08:20:36;;;;;;;1.67;1.10;;;;;;;22.12;24.87;99784.94;1612774;86;21575;-58
2021/05/09 08:23:05;;;;;;;2.77;1.80;;;;;;;22.15;25.07;99776.33;1631132;87;21212;-59
2021/05/09 08:25:35;;;;;;;1.70;1.40;;;;;;;22.18;25.75;99777.74;1650405;86;21074;-57
2021/05/09 08:28:04;;;;;;;2.20;1.40;;;;;;;22.45;25.65;99775.61;1681165;84;21181;-62
2021/05/09 08:30:31;;;;;;;3.77;1.30;;;;;;;22.72;25.43;99778.09;1645340;86;21128;-61
2021/05/09 08:33:00;;;;;;;2.37;1.40;;;;;;;22.99;25.47;99775.63;1637631;86;21155;-61
2021/05/09 08:35:27;;;;;;;4.40;1.20;;;;;;;23.26;24.70;99779.36;1644225;86;21381;-61
2021/05/09 08:37:57;;;;;;;2.17;1.45;;;;;;;23.34;25.04;99783.02;1624041;87;21034;-60
2021/05/09 08:40:27;;;;;;;1.52;1.10;;;;;;;23.48;24.09;99786.81;1616023;87;21040;-59
2021/05/09 08:42:54;;;;;;;2.67;1.30;;;;;;;23.45;23.31;99782.70;1621620;87;21213;-56
2021/05/09 08:45:22;;;;;;;1.20;1.10;;;;;;;23.42;23.55;99776.40;1638452;86;21152;-59
2021/05/09 08:47:51;;;;;;;1.35;1.10;;;;;;;23.48;22.72;99786.28;1650536;85;21489;-59
2021/05/09 08:50:22;;;;;;;1.57;1.15;;;;;;;23.48;22.84;99775.95;1648258;85;21640;-61
2021/05/09 08:52:50;;;;;;;1.57;1.30;;;;;;;23.49;22.77;99769.46;1616277;87;21582;-61
2021/05/09 08:55:23;;;;;;;2.47;1.25;;;;;;;23.43;22.88;99763.66;1610344;87;21083;-60
2021/05/09 08:57:56;;;;;;;1.32;1.22;;;;;;;23.51;23.56;99761.88;1616877;87;21676;-60
2021/05/09 09:00:25;;;;;;;1.82;1.32;;;;;;;23.68;23.43;99766.76;1645840;85;22440;-61
2021/05/09 09:02:55;;;;;;;1.82;1.20;;;;;;;23.92;22.43;99760.06;1636142;86;21218;-63
2021/05/09 09:05:36;;;;;;;1.65;1.40;;;;;;;24.05;22.54;99758.88;1617776;87;20975;-61
2021/05/09 09:08:05;;;;;;;1.55;1.05;;;;;;;24.03;22.75;99764.58;1615108;87;21236;-61
2021/05/09 09:10:46;;;;;;;11.78;10.60;;;;;;;24.03;22.50;99771.38;1615796;87;21095;-62
2021/05/09 09:13:31;;;;;;;2.37;2.10;;;;;;;24.04;22.46;99765.41;1648652;85;22225;-60
2021/05/09 09:16:00;;;;;;;4.70;1.60;;;;;;;24.02;22.02;99775.68;1648850;85;21179;-62
2021/05/09 09:18:37;;;;;;;2.37;1.35;;;;;;;24.07;22.41;99760.80;1618873;87;21202;-60
2021/05/09 09:21:28;;;;;;;2.67;1.10;;;;;;;24.39;22.04;99767.25;1616007;87;21226;-61
2021/05/09 09:24:08;;;;;;;2.40;1.55;;;;;;;24.52;21.69;99768.23;1654155;85;21171;-64
2021/05/09 09:26:41;;;;;;;4.03;1.40;;;;;;;24.65;22.01;99769.20;1644346;86;22294;-55
2021/05/09 09:29:29;;;;;;;1.30;1.20;;;;;;;24.79;22.17;99766.95;1665538;85;21163;-52
2021/05/09 09:32:06;;;;;;;3.45;1.50;;;;;;;24.95;22.82;99764.11;1652877;86;21271;-51
2021/05/09 09:34:44;;;;;;;3.52;1.37;;;;;;;24.81;22.45;99764.78;1666493;85;21195;-59
2021/05/09 09:37:14;;;;;;;4.97;1.42;;;;;;;24.29;23.50;99763.88;1643268;84;21148;-57
2021/05/09 09:39:54;;;;;;;1.20;1.10;;;;;;;24.22;23.67;99765.14;1618948;87;21373;-57
2021/05/09 09:42:42;;;;;;;3.37;1.70;;;;;;;24.41;23.12;99767.28;1627515;87;21169;-59
2021/05/09 09:45:20;;;;;;;2.60;1.25;;;;;;;24.74;22.88;99774.45;1662107;85;21147;-58
2021/05/09 09:47:56;;;;;;;2.15;1.40;;;;;;;25.07;21.73;99762.61;1648423;86;21219;-58
2021/05/09 09:50:49;;;;;;;2.02;1.42;;;;;;;25.23;21.88;99764.93;1659273;85;21645;-59
2021/05/09 09:53:38;;;;;;;1.60;1.50;;;;;;;25.43;21.53;99770.55;1666176;85;22304;-60
2021/05/09 09:56:17;;;;;;;1.98;1.40;;;;;;;25.50;20.41;99760.27;1621272;87;21107;-58
2021/05/09 09:59:04;;;;;;;3.37;2.17;;;;;;;25.11;20.56;99766.44;1645796;85;21069;-61
2021/05/09 10:01:35;;;;;;;1.60;1.50;;;;;;;24.99;21.26;99758.45;1620245;87;21059;-61
2021/05/09 10:04:07;;;;;;;1.55;1.45;;;;;;;24.93;20.90;99754.03;1647044;85;21550;-63
2021/05/09 10:06:39;;;;;;;3.35;3.10;;;;;;;24.74;20.91;99760.86;1617016;87;21276;-61
2021/05/09 10:09:08;;;;;;;2.05;1.50;;;;;;;24.47;20.82;99755.94;1614552;87;21226;-64
2021/05/09 10:11:37;;;;;;;1.75;1.32;;;;;;;24.13;21.44;99755.23;1610680;87;21012;-60
2021/05/09 10:14:05;;;;;;;1.85;1.30;;;;;;;24.06;21.83;99753.21;1613488;87;21165;-60
2021/05/09 10:16:38;;;;;;;1.77;1.40;;;;;;;23.95;21.33;99759.57;1616891;87;21182;-61
2021/05/09 10:19:13;;;;;;;1.32;1.10;;;;;;;23.95;21.17;99754.14;1589734;87;22269;-58
2021/05/09 10:21:42;;;;;;;;;;;;;;;23.96;21.42;99756.59;1646800;85;21167;-62
2021/05/09 10:24:16;;;;;;;1.90;1.12;;;;;;;23.94;21.98;99754.67;1633709;86;20340;-60
2021/05/09 10:26:56;;;;;;;4.67;1.20;;;;;;;24.15;21.90;99757.69;1652939;85;21212;-61
2021/05/09 10:29:39;;;;;;;1.92;1.20;;;;;;;24.41;21.22;99754.22;1615200;87;21325;-59
2021/05/09 10:32:24;;;;;;;1.72;1.60;;;;;;;24.38;20.73;99759.63;1628215;87;21224;-60
2021/05/09 10:34:58;;;;;;;3.30;3.00;;;;;;;24.11;20.98;99759.28;1632836;85;21289;-57
2021/05/09 10:37:53;;;;;;;2.22;2.02;;;;;;;23.58;21.18;99760.64;1674865;84;21207;-70
2021/05/09 10:40:38;;;;;;;1.62;1.52;;;;;;;23.04;21.13;99756.73;1633551;86;21075;-65
2021/05/09 10:43:11;;;;;;;1.20;1.10;;;;;;;22.54;22.37;99762.51;1642179;86;21076;-65
2021/05/09 10:45:45;;;;;;;2.40;1.55;;;;;;;22.14;23.38;99759.77;1635044;86;21379;-64
2021/05/09 10:51:14;;;;;;;2.60;1.60;;;;;;;21.59;23.89;99767.42;1819430;77;22710;-63
2021/05/09 10:53:43;;;;;;;2.08;1.32;;;;;;;21.26;23.60;99769.86;1806521;79;21591;-65
2021/05/09 10:56:21;;;;;;;2.30;1.67;;;;;;;20.88;24.14;99764.23;1807819;79;21261;-61
2021/05/09 10:59:11;;;;;;;2.25;1.45;;;;;;;20.66;24.25;99764.98;1744380;82;21012;-61
2021/05/09 11:01:38;;;;;;;1.72;1.25;;;;;;;20.46;24.22;99754.45;1616528;86;21064;-62
2021/05/09 11:04:12;;;;;;;1.60;1.10;;;;;;;20.27;24.01;99755.50;1689346;83;20990;-62
2021/05/09 11:06:50;;;;;;;1.82;1.37;;;;;;;20.26;24.43;99752.48;1689873;83;20987;-61
2021/05/09 11:09:28;;;;;;;1.80;1.20;;;;;;;20.26;24.26;99757.37;1688164;83;22215;-60
2021/05/09 11:12:00;;;;;;;2.42;1.50;;;;;;;20.20;24.20;99758.78;1693145;83;21078;-62
2021/05/09 11:14:27;;;;;;;2.25;1.40;;;;;;;20.19;24.29;99753.07;1691050;83;20990;-62
2021/05/09 11:17:02;;;;;;;1.17;0.90;;;;;;;20.19;25.54;99745.80;1693132;83;21085;-62
2021/05/09 11:19:44;;;;;;;1.33;1.23;;;;;;;20.19;25.54;99745.80;1692748;83;21058;-63
2021/05/09 11:22:12;;;;;;;1.42;1.10;;;;;;;20.22;25.40;99749.92;1686428;83;21734;-64
2021/05/09 11:24:41;;;;;;;1.57;1.25;;;;;;;20.13;24.72;99753.45;1690432;83;21054;-66
2021/05/09 11:27:12;;;;;;;2.45;1.40;;;;;;;19.92;23.96;99744.98;1707958;83;20943;-65
2021/05/09 11:29:41;;;;;;;2.37;1.07;;;;;;;19.60;24.38;99743.74;1710826;83;21068;-65
2021/05/09 11:32:19;;;;;;;1.25;1.15;;;;;;;19.51;25.36;99740.17;1709038;83;21492;-65
2021/05/09 11:34:56;;;;;;;1.57;1.17;;;;;;;19.56;24.86;99734.94;1699615;83;21213;-64
2021/05/09 11:37:33;;;;;;;1.67;1.30;;;;;;;19.49;24.94;99733.67;1692866;83;20998;-64
2021/05/09 11:40:03;;;;;;;1.47;1.32;;;;;;;19.46;25.28;99741.37;1697981;83;21018;-65
2021/05/09 11:42:31;;;;;;;1.45;1.35;;;;;;;19.42;25.24;99738.83;1692927;83;21101;-65
2021/05/09 11:44:58;;;;;;;2.70;0.93;;;;;;;19.37;25.62;99745.38;1699305;83;21148;-66
2021/05/09 11:47:32;;;;;;;2.05;1.20;;;;;;;19.31;24.87;99743.03;1692867;83;21158;-64
2021/05/09 11:50:06;;;;;;;3.08;1.12;;;;;;;19.20;25.61;99738.34;1699035;83;21157;-65
2021/05/09 11:52:57;;;;;;;1.20;1.10;;;;;;;19.13;26.22;99739.44;1690926;83;21034;-66
2021/05/09 11:55:26;;;;;;;2.35;1.40;;;;;;;19.03;26.45;99738.04;1682877;83;21051;-65